Cass, West Virginia
Current Conditions -  °F | °C
As of 4:35 AM on Thursday 23 Oct 2014 (Local Time) from KHSP Reporting Station
Overcast Overcast  
Wind Chill: 27°   Ceiling: 600
Heat Index: 38°   Visibility: 10mi
Dew Point: 36°   Wind: 28mph
Humidity: 92%   Direction: 310°NW
Pressure: 29.99"   Gusts: 37mph
Location:  38.4°N, 79.91°W
Report Text: KHSP 230835Z AUTO 31024G32KT 10SM OVC006 04/02 A2999 RMK AO2 T00360024
Loading
Personal Weather Stations






























Interactive Weather Map
Tropical Storm Tracking
New forecast layout! Learn more

10-Day Weather Forecast

Advertisements
Track Severe Weather on mobile